Algoma, Wisconsin
Current Conditions -  °F | °C
As of 9:35 AM on Saturday 22 Nov 2014 (Local Time) from KSUE Reporting Station
Overcast Overcast  
Wind Chill: 25°   Ceiling: 900
Heat Index: 34°   Visibility: 5mi
Dew Point: 28°   Wind: 13mph
Humidity: 81%   Direction: 220°SW
Pressure: 29.85"   Gusts: NA
Location:  44.61°N, 87.43°W
Report Text: KSUE 221535Z AUTO 22011KT 5SM OVC009 01/M02 A2985 RMK AO1
Loading
Personal Weather Stations






























Interactive Weather Map New forecast layout! Learn more

10-Day Weather Forecast

Advertisements
Track Severe Weather on mobile